OMAAOBBI

Guest
Details From OMAA - ABU DHABI INTL
To OBBI - BAHRAIN INTL
Flight Number -
Tags decoded
Created
Modified
Stats Distance 245 nm / 454 km
Max Altitude 0 ft / 0 m
Waypoints 6
Social Downloads 0
Likes 0
Share VATSIM

Download

Looking for another format? Having issues loading an existing format? Contact us
Advertisement - Login to hide

Notes

Requested: OMAA BOXAK KAPUM NAGRA TOPSI TOSNA ENANO ORSIS KAPAX EMISA PATOM DENVO BAH OBBI Unmatched points: KAPUM NAGRA ENANO ORSIS KAPAX EMISA PATOM DENVO

Route

OMAA BOXAK TOPSI TOSNA BAH OBBI

ID Type Via Altitude Latitude Longitude Leg Dist Tot Dist Heading (true) Name
O OMAA APT - 0 ft / 0 m 24.43305˚ 54.65118˚ - 0 nm - ABU DHABI INTL
BOXAK FIX - 0 ft / 0 m 24.76000˚ 54.00889˚ 40 nm 40 nm 299° / 299° -
TOPSI FIX - 0 ft / 0 m 25.15278˚ 53.20000˚ 49 nm 90 nm 298° / 298° -
TOSNA FIX - 0 ft / 0 m 25.27000˚ 52.68778˚ 28 nm 118 nm 284° / 284° -
BAH VOR - 0 ft / 0 m 26.26419˚ 50.64885˚ 125 nm 244 nm 299° / 298° BAHRAIN VOR-DME
O OBBI APT - 0 ft / 0 m 26.26784˚ 50.63710˚ 0 nm 244 nm 289° / 289° BAHRAIN INTL

Altitude Profile

Advertisement - Login to hide

Weather


0- 5 10 15 20 25 30 35+ Temperature / ° C

Clouds and Precipitation
Forecast for 2018-05-24 00:00 UTC. Updated 5 hours ago

Ground ~20,000 ft ~40,000 ft Winds

OMAA

Details ICAO OMAA (AUH)
Name ABU DHABI INTL
Region United Arab Emirates
Timezone Asia/Dubai (UTC+4.0)
Stats Elevation 88 ft / 27 m (AMSL)
Location 24.433049° 54.651182°
Runways 1
Magnetic Variation 2.000° E

METAR

OMAA 240400Z 13006KT CAVOK 34/07 Q1005 NOSIG

Decode

TAF

TAF OMAA 232300Z 2400/2506 12006KT 8000 NSC BECMG 2407/2409 33014KT BECMG 2418/2420 06006KT BECMG 2501/2503 14012KT

Decode

Departure Runways

ID Width Length Bearing (true) Bearing (mag) Surface Threshold Offset Overrun Length
13 148 ft / 45 m 13,461 ft / 4,103 m 127.94° 125.94° Asphalt 0 ft / 0 m 180 ft / 55 m
31 148 ft / 45 m 13,461 ft / 4,103 m 307.95° 305.95° Asphalt 0 ft / 0 m 196 ft / 60 m

OBBI

Details ICAO OBBI (BAH)
Name BAHRAIN INTL
Region Bahrain
Timezone Asia/Bahrain (UTC+3.0)
Stats Elevation 6 ft / 2 m (AMSL)
Location 26.267837° 50.637095°
Runways 2
Magnetic Variation 2.783° E

METAR

OBBI 240430Z 35005KT 310V020 CAVOK 32/22 Q1007 NOSIG

Decode

TAF

TAF OBBI 232300Z 2400/2506 VRB05KT CAVOK= TAF OKBK 232245Z 2400/2506 VRB03KT CAVOK BECMG 2412/2414 15015KT

Decode

Destination Runways

ID Width Length Bearing (true) Bearing (mag) Surface Threshold Offset Overrun Length
12L 197 ft / 60 m 12,893 ft / 3,930 m 122.74° 119.96° Asphalt 1,000 ft / 305 m 0 ft / 0 m
12R 148 ft / 45 m 8,303 ft / 2,531 m 122.76° 119.98° Asphalt 1,000 ft / 305 m 0 ft / 0 m
30L 148 ft / 45 m 8,303 ft / 2,531 m 302.77° 299.99° Asphalt 395 ft / 120 m 0 ft / 0 m
30R 197 ft / 60 m 12,893 ft / 3,930 m 302.75° 299.97° Asphalt 1,000 ft / 305 m 0 ft / 0 m

Approach Navaids

Runway Type Ident Frequency Range Bearing (true) Bearing (mag) Slope Elevation
12L Localiser IBIB 111.50 MHz 18 nm / 33 km 122.74° 119.96° - 6 ft / 2 m (AMSL)
12L Glidescope IBIB 111.50 MHz 10 nm / 19 km 122.75° 119.96° 3.00° 6 ft / 2 m (AMSL)
12L DME IBIB 111.50 MHz 18 nm / 33 km - - - 42 ft / 13 m (AMSL)
30R Localiser IBIA 110.30 MHz 18 nm / 33 km 302.77° 299.99° - 6 ft / 2 m (AMSL)
30R Glidescope IBIA 110.30 MHz 10 nm / 19 km 302.75° 299.96° 3.00° 6 ft / 2 m (AMSL)
30R DME IBIA 110.30 MHz 18 nm / 33 km - - - 42 ft / 13 m (AMSL)

Popular Alternatives